ADDS METAR Data INFO
IDs: Format: Raw Decoded Include TAF

Data at: 1316 UTC 19 Jul 2018

KCOE 191256Z AUTO 18006KT 10SM CLR 17/11 A3004 RMK AO2 SLP168 T01720106 PNO $
KCOE 191156Z AUTO 22003KT 10SM CLR 14/10 A3003 RMK AO2 SLP166 6//// 7//// T01390100 10239 20139 53011 PNO $
KCOE 191056Z AUTO 17008KT 10SM CLR 19/09 A3001 RMK AO2 SLP158 T01890089 PNO $
KCOE 190956Z AUTO 16008KT 10SM CLR 19/09 A3000 RMK AO2 SLP154 T01940094 PNO $
KCOE 190856Z AUTO 17008KT 10SM CLR 21/08 A2999 RMK AO2 SLP151 6//// T02060083 52001 PNO $
KCOE 190756Z AUTO 16006KT 10SM CLR 21/07 A2999 RMK AO2 SLP150 T02110072 403170156 PNO $
KCOE 190656Z AUTO 17007KT 10SM CLR 22/08 A2999 RMK AO2 SLP151 T02170078 PNO $
KCOE 190556Z AUTO 16006KT 10SM CLR 24/06 A2999 RMK AO2 SLP149 6//// T02390056 10311 20233 51005 PNO $
KCOE 190456Z AUTO 15007KT 10SM CLR 26/06 A2999 RMK AO2 SLP149 T02560056 PNO $
KCOE 190356Z AUTO 17005KT 10SM CLR 25/06 A2998 RMK AO2 SLP147 T02500056 PNO $
KCOE 190256Z AUTO 19007KT 10SM CLR 27/06 A2997 RMK AO2 SLP145 6//// T02720061 56006 PNO $
KCOE 190156Z AUTO 20008KT 10SM CLR 29/08 A2997 RMK AO2 SLP144 T02890083 PNO $
KCOE 190056Z AUTO 00000KT 10SM CLR 31/08 A2998 RMK AO2 SLP150 T03060078 PNO $
KCOE 182356Z AUTO 21008KT 10SM CLR 31/07 A2999 RMK AO2 SLP151 6//// T03110072 10317 20261 58014 PNO $
KCOE 182256Z AUTO 23010G20KT 10SM CLR 31/07 A3001 RMK AO2 SLP156 T03110072 PNO $
KCOE 182156Z AUTO 25011G15KT 9SM CLR 31/07 A3002 RMK AO2 SLP160 T03060072 PNO $
KCOE 182056Z AUTO 24011G15KT 10SM CLR 29/08 A3004 RMK AO2 SLP164 6//// T02940078 58004 PNO $
KCOE 181956Z AUTO 23007KT 170V270 10SM CLR 29/08 A3004 RMK AO2 SLP168 T02890083 PNO $
KCOE 181856Z AUTO 20013G18KT 10SM CLR 28/07 A3004 RMK AO2 SLP169 T02780067 PNO $
KCOE 181756Z AUTO 18014G19KT 10SM CLR 27/07 A3005 RMK AO2 SLP171 6//// T02670072 10267 20156 51002 PNO $
KCOE 181656Z AUTO 17011G17KT 10SM CLR 25/09 A3005 RMK AO2 SLP168 T02500089 PNO $
KCOE 181556Z AUTO 17011KT 10SM CLR 23/09 A3005 RMK AO2 SLP168 T02330089 PNO $
KCOE 181356Z AUTO 19009KT 10SM CLR 21/09 A3003 RMK AO2 SLP161 T02060089 PNO $
KCOE 181256Z AUTO 23004KT 10SM CLR 16/08 A3001 RMK AO2 SLP159 T01560083 PNO $
KCOE 181156Z AUTO 23004KT 10SM CLR 17/08 A3000 RMK AO2 SLP153 6//// 7//// T01720078 10222 20172 53014 PNO $
KCOE 181056Z AUTO 19004KT 10SM CLR 19/07 A2998 RMK AO2 SLP144 T01890072 PNO $
KCOE 180956Z AUTO 15004KT 10SM CLR 21/07 A2997 RMK AO2 SLP140 T02060072 PNO $
KCOE 180856Z AUTO 16005KT 10SM CLR 22/08 A2996 RMK AO2 SLP135 6//// T02170078 53004 PNO $
KCOE 180756Z AUTO 13004KT 10SM CLR 21/09 A2995 RMK AO2 SLP133 T02110089 403500128 PNO $
KCOE 180656Z AUTO 00000KT 10SM CLR 20/09 A2995 RMK AO2 SLP136 T02000094 PNO $
KCOE 180556Z AUTO 00000KT 10SM CLR 22/10 A2994 RMK AO2 SLP133 6//// T02220100 10344 20211 53003 PNO $
KCOE 180456Z AUTO 14006KT 10SM CLR 26/08 A2994 RMK AO2 SLP130 T02610083 PNO $
KCOE 180356Z AUTO 16005KT 10SM CLR 29/07 A2993 RMK AO2 SLP128 T02890067 PNO $
KCOE 180256Z AUTO 16004KT 10SM CLR 32/07 A2994 RMK AO2 SLP128 6//// T03170067 56009 PNO $
KCOE 180156Z AUTO 19008KT 10SM CLR 32/07 A2994 RMK AO2 SLP131 T03220072 PNO $